Waarschuwingen

Verwachting komende 24 uur

Neerslag & Bliksem

Onweer Ontladingen

[Source: ADDS]
METAR
EBBR 261320Z 05010KT 6000 SHRAGS SCT045CB 05/02 Q1014 NOSIG =
TAF
EBBR 261100Z 2612/2718 32005KT 9999 SCT020CB SCT040 TEMPO 2612/2618 4000 SHRA PROB30 TEMPO 2612/2617 VRB15G25KT 2000 TSRAGS TEMPO 2710/2718 3000 SHRAGS =
SR / SS: 04:24 / 18:56 UTC (Brussels 2017-04-26)

Today 244

Yesterday 343

Week 824

Month 7416

All 4914305

Kubik-Rubik Joomla! Extensions

Go to top